• Join FlightAware (Why Join?)
  • Login
  • US Flag 
02:34PM EDT


 

Airport Tracker/Info


-or-


 

Live Flight TrackerFlight Track Log ✈ RPA4911 ✈ 01-Jul-2013 ✈ KALB - KEWR

Flight Track Log - Related Links

Times and Time Zones

All times are in EDT time to prevent confusion due to time zone crossing. See the RPA4911 flight status page for this flight to view local times or setup timezone preferences in your user account.

Time Position Orientation Groundspeed Altitude Reporting Facility
EDT Latitude Longitude Course Direction KTS MPH feet Rate Location/Type
07:01AM 42.7214 -73.8078 217° Southwest 181 208 1,500  Level Boston Center
07:02AM 42.6694 -73.8125 184° South 222 255 3,700 2,640 Climbing Boston Center
07:03AM 42.6128 -73.8422 201° Southwest 235 270 6,600 3,060 Climbing Boston Center
07:04AM 42.5561 -73.8692 199° South 223 257 9,900 2,880 Climbing Boston Center
07:05AM 42.3790 -73.8697 197° South  Level Estimated
07:05AM 42.4972 -73.8986 200° South 218 251 12,400  Level Boston Center
07:06AM 42.3072 -73.9423 217° Southwest  Level FlightAware Approximate
07:06AM 42.4428 -73.9283 202° Southwest 213 245 14,400  Level Boston Center
07:07AM 42.3819 -73.9606 201° Southwest 225 259 15,900 780 Climbing Boston Center
07:08AM 42.3128 -73.9928 199° South 257 296 16,000  Climbing Boston Center
07:09AM 42.2414 -74.0303 201° Southwest 272 313 16,000  Level Boston Center
07:10AM 42.1678 -74.0619 198° South 278 320 16,000  Level Boston Center
07:11AM 42.1008 -74.0911 198° South 289 333 16,000  Level Boston Center
07:12AM 42.0253 -74.1225 197° South 289 333 16,000  Level Boston Center
07:13AM 41.9392 -74.1622 199° South 294 338 16,000  Level Boston Center
07:14AM 41.8719 -74.2050 205° Southwest 294 338 16,000 -480 Level Boston Center
07:15AM 41.8078 -74.2950 226° Southwest 299 344 15,100 -960 Descending Boston Center
07:16AM 41.7508 -74.3461 214° Southwest 286 329 14,100 -1,020 Descending Boston Center
07:17AM 41.6772 -74.3803 199° South 261 300 13,100 -1,020 Descending Boston Center
07:18AM 41.6119 -74.4142 201° Southwest 269 310 12,100 -1,200 Descending Boston Center
07:19AM 41.5611 -74.4625 215° Southwest 276 318 10,700 -1,800 Descending Boston Center
07:20AM 41.4792 -74.5044 201° Southwest 270 311 8,500 -1,500 Descending Boston Center
07:22AM 41.3667 -74.5500 197° South 234 269 7,000 -600 Descending New York TRACON
07:23AM 41.3000 -74.5667 191° South 250 288 7,000  Level New York TRACON
07:23AM 41.2333 -74.5500 169° South 261 300 7,000  Level New York TRACON
07:24AM 41.1833 -74.5167 153° Southeast 263 303 7,000 -300 Level New York TRACON
07:25AM 41.1333 -74.4500 135° Southeast 239 275 6,500 -900 Descending New York TRACON
07:26AM 41.1000 -74.4000 131° Southeast 231 266 5,400 -840 Descending New York TRACON
07:27AM 41.0500 -74.3333 135° Southeast 235 270 5,000 -480 Descending New York TRACON
07:28AM 41.0000 -74.2667 135° Southeast 254 292 4,500 -540 Descending New York TRACON
07:29AM 40.9667 -74.2167 131° Southeast 238 274 4,000 -300 Descending New York TRACON
07:30AM 40.9167 -74.1667 143° Southeast 178 205 4,000 -540 Level New York TRACON
07:31AM 40.8833 -74.1167 131° Southeast 178 205 3,000 -660 Descending New York TRACON
07:32AM 40.8500 -74.0667 131° Southeast 175 201 2,800 -240 Descending New York TRACON